Time;durP1;ratioP1;P1;durP2;ratioP2;P2;SDS_P1;SDS_P2;PMS_P1;PMS_P2;Temp;Humidity;BMP_temperature;BMP_pressure;BME280_temperature;BME280_humidity;BME280_pressure;Samples;Min_cycle;Max_cycle;Signal;HPM_P1;HPM_P2
2022/04/08 00:01:28;;;;;;;7.28;1.00;;;6.60;99.90;;;;;;5039367;28;20139;-66
2022/04/08 00:03:55;;;;;;;8.98;1.05;;;6.70;99.90;;;;;;5031994;28;20183;-66
2022/04/08 00:06:21;;;;;;;8.05;0.68;;;6.70;99.90;;;;;;5037055;28;20029;-66
2022/04/08 00:08:47;;;;;;;8.15;1.15;;;6.70;99.90;;;;;;5036066;28;20021;-66
2022/04/08 00:11:13;;;;;;;10.85;1.60;;;6.70;99.90;;;;;;5035666;28;20027;-66
2022/04/08 00:13:39;;;;;;;9.05;1.50;;;6.60;99.90;;;;;;5039791;28;20388;-66
2022/04/08 00:16:09;;;;;;;12.38;1.60;;;6.70;99.90;;;;;;5033366;28;20108;-66
2022/04/08 00:18:36;;;;;;;12.13;1.50;;;6.70;99.90;;;;;;5033635;28;20021;-66
2022/04/08 00:21:03;;;;;;;14.85;1.67;;;6.70;99.90;;;;;;5044373;28;20028;-65
2022/04/08 00:23:29;;;;;;;9.52;1.27;;;6.70;99.90;;;;;;5036378;28;20391;-66
2022/04/08 00:25:54;;;;;;;7.90;1.92;;;6.60;99.90;;;;;;5035802;28;20029;-66
2022/04/08 00:28:20;;;;;;;14.05;3.15;;;6.70;99.90;;;;;;5030892;28;20051;-66
2022/04/08 00:30:45;;;;;;;8.05;1.30;;;6.70;99.90;;;;;;5030944;28;20021;-66
2022/04/08 00:33:11;;;;;;;10.48;1.65;;;6.70;99.90;;;;;;5033616;28;20014;-66
2022/04/08 00:35:37;;;;;;;11.00;2.13;;;6.70;99.90;;;;;;5034920;28;20027;-66
2022/04/08 00:38:02;;;;;;;11.00;1.42;;;6.60;99.90;;;;;;5027069;28;20041;-66
2022/04/08 00:40:28;;;;;;;13.70;2.78;;;6.70;99.90;;;;;;5032545;28;20444;-66
2022/04/08 00:42:54;;;;;;;10.07;1.30;;;6.70;99.90;;;;;;5036039;28;20025;-66
2022/04/08 00:45:20;;;;;;;15.55;2.00;;;6.70;99.90;;;;;;5036906;28;20492;-66
2022/04/08 00:47:45;;;;;;;9.85;1.85;;;6.70;99.90;;;;;;5034393;28;20103;-66
2022/04/08 00:50:12;;;;;;;14.55;2.33;;;6.70;99.90;;;;;;5034875;28;20026;-66
2022/04/08 00:52:41;;;;;;;11.80;1.52;;;6.60;99.90;;;;;;5036150;28;20056;-66
2022/04/08 00:55:07;;;;;;;14.88;1.70;;;6.60;99.90;;;;;;5030457;28;20354;-66
2022/04/08 00:57:33;;;;;;;17.58;1.88;;;6.60;99.90;;;;;;5034435;28;20140;-67
2022/04/08 01:00:10;;;;;;;12.95;1.63;;;6.60;99.90;;;;;;5034399;28;20036;-66
2022/04/08 01:02:36;;;;;;;11.02;1.70;;;6.60;99.90;;;;;;5040652;28;20041;-66
2022/04/08 01:05:02;;;;;;;12.48;1.75;;;6.50;99.90;;;;;;5039888;28;20033;-66
2022/04/08 01:07:28;;;;;;;12.50;1.45;;;6.50;99.90;;;;;;5031549;28;20021;-66
2022/04/08 01:09:54;;;;;;;7.65;1.80;;;6.60;99.90;;;;;;5044909;28;20029;-67
2022/04/08 01:12:20;;;;;;;11.60;1.73;;;6.60;99.90;;;;;;5037609;28;20041;-66
2022/04/08 01:14:45;;;;;;;30.00;3.28;;;6.60;99.90;;;;;;5036986;28;20061;-66
2022/04/08 01:17:11;;;;;;;8.23;1.50;;;6.50;99.90;;;;;;5035935;28;20025;-66
2022/04/08 01:19:37;;;;;;;9.43;1.52;;;6.50;99.90;;;;;;5033503;28;20034;-67
2022/04/08 01:22:03;;;;;;;13.45;2.53;;;6.50;99.90;;;;;;5036656;28;20079;-66
2022/04/08 01:24:29;;;;;;;12.00;1.95;;;6.50;99.90;;;;;;5042112;28;20475;-66
2022/04/08 01:26:55;;;;;;;13.52;1.60;;;6.40;99.90;;;;;;5041699;28;20102;-66
2022/04/08 01:29:21;;;;;;;17.73;3.63;;;6.40;99.90;;;;;;5039587;28;20061;-66
2022/04/08 01:31:46;;;;;;;11.68;1.73;;;6.40;99.90;;;;;;5037834;28;20025;-66
2022/04/08 01:34:12;;;;;;;11.73;1.83;;;6.40;99.90;;;;;;5033574;28;20021;-66
2022/04/08 01:36:38;;;;;;;4.97;0.70;;;6.40;99.90;;;;;;5042668;28;21184;-66
2022/04/08 01:39:05;;;;;;;8.10;1.25;;;6.40;99.90;;;;;;5036796;28;20028;-66
2022/04/08 01:41:31;;;;;;;13.40;1.20;;;6.40;99.90;;;;;;5036456;28;20041;-66
2022/04/08 01:43:57;;;;;;;8.98;1.27;;;6.40;99.90;;;;;;5037756;28;20384;-66
2022/04/08 01:46:23;;;;;;;8.63;1.25;;;6.40;99.90;;;;;;5036248;28;20025;-66
2022/04/08 01:48:53;;;;;;;15.95;1.42;;;6.30;99.90;;;;;;5041800;28;20039;-66
2022/04/08 01:51:18;;;;;;;12.80;0.98;;;6.30;99.90;;;;;;5038527;28;20028;-66
2022/04/08 01:53:44;;;;;;;10.75;0.98;;;6.30;99.90;;;;;;5037382;28;20431;-66
2022/04/08 01:56:09;;;;;;;7.55;1.50;;;6.30;99.90;;;;;;5040822;28;20047;-66
2022/04/08 01:58:35;;;;;;;10.05;1.67;;;6.30;99.90;;;;;;5043734;28;20032;-66
2022/04/08 02:01:01;;;;;;;5.80;0.95;;;6.20;99.90;;;;;;5042139;28;20032;-67
2022/04/08 02:03:27;;;;;;;12.55;1.20;;;6.20;99.90;;;;;;5036591;28;20039;-66
2022/04/08 02:05:53;;;;;;;8.18;1.10;;;6.20;99.90;;;;;;5033254;28;20051;-66
2022/04/08 02:08:19;;;;;;;10.25;1.73;;;6.10;99.90;;;;;;5035846;28;20072;-65
2022/04/08 02:10:44;;;;;;;7.38;1.25;;;6.10;99.90;;;;;;5038405;28;20430;-65
2022/04/08 02:13:09;;;;;;;13.68;1.42;;;6.10;99.90;;;;;;5032339;28;20065;-66
2022/04/08 02:15:35;;;;;;;8.48;1.15;;;6.00;99.90;;;;;;5039981;28;20893;-66
2022/04/08 02:18:02;;;;;;;11.68;1.63;;;6.00;99.90;;;;;;5051659;28;20082;-65
2022/04/08 02:20:29;;;;;;;5.95;0.73;;;6.00;99.90;;;;;;5041670;28;20029;-67
2022/04/08 02:22:55;;;;;;;5.05;0.77;;;5.90;99.90;;;;;;5040714;28;20080;-66
2022/04/08 02:25:21;;;;;;;7.28;0.85;;;5.90;99.90;;;;;;5042493;28;20064;-66
2022/04/08 02:27:47;;;;;;;5.00;0.70;;;5.90;99.90;;;;;;5018843;28;20025;-66
2022/04/08 02:30:12;;;;;;;3.05;0.60;;;5.80;99.90;;;;;;5037720;28;20099;-67
2022/04/08 02:32:38;;;;;;;10.05;1.00;;;5.80;99.90;;;;;;5041558;28;20484;-66
2022/04/08 02:35:04;;;;;;;9.18;1.13;;;5.70;99.90;;;;;;5034868;28;20115;-65
2022/04/08 02:37:30;;;;;;;5.47;0.90;;;5.70;99.90;;;;;;5034383;28;20040;-65
2022/04/08 02:39:55;;;;;;;7.55;0.88;;;5.70;99.90;;;;;;5041704;28;20028;-65
2022/04/08 02:42:21;;;;;;;4.15;0.60;;;5.60;99.90;;;;;;5035898;28;20087;-66
2022/04/08 02:44:46;;;;;;;6.30;0.80;;;5.60;99.90;;;;;;5040453;28;20469;-65
2022/04/08 02:47:12;;;;;;;6.93;0.63;;;5.60;99.90;;;;;;5035289;28;20548;-65
2022/04/08 02:49:37;;;;;;;6.22;0.85;;;5.50;99.90;;;;;;5037642;28;20025;-65
2022/04/08 02:52:03;;;;;;;6.30;1.00;;;5.50;99.90;;;;;;5040708;28;20039;-65
2022/04/08 02:54:29;;;;;;;7.88;0.80;;;5.50;99.90;;;;;;5038047;28;20018;-66
2022/04/08 02:56:54;;;;;;;6.95;1.30;;;5.40;99.90;;;;;;5039891;28;20138;-66
2022/04/08 02:59:20;;;;;;;6.93;1.38;;;5.40;99.90;;;;;;5050409;28;20041;-65
2022/04/08 03:01:45;;;;;;;6.43;0.88;;;5.40;99.90;;;;;;5046130;28;20064;-65
2022/04/08 03:04:11;;;;;;;11.25;1.17;;;5.40;99.90;;;;;;5039298;28;20428;-66
2022/04/08 03:06:36;;;;;;;9.80;1.33;;;5.40;99.90;;;;;;5035591;28;20025;-65
2022/04/08 03:09:03;;;;;;;8.43;1.23;;;5.40;99.90;;;;;;5037954;28;20013;-65
2022/04/08 03:11:28;;;;;;;6.40;0.70;;;5.40;99.90;;;;;;5035975;28;20019;-65
2022/04/08 03:13:54;;;;;;;7.53;0.88;;;5.40;99.90;;;;;;5036286;28;20378;-66
2022/04/08 03:16:20;;;;;;;5.22;0.95;;;5.40;99.90;;;;;;5028976;28;20287;-66
2022/04/08 03:18:48;;;;;;;8.20;1.23;;;5.50;99.90;;;;;;5037264;28;20497;-65
2022/04/08 03:21:13;;;;;;;6.85;1.70;;;5.50;99.90;;;;;;5033659;28;20076;-65
2022/04/08 03:23:39;;;;;;;5.20;0.98;;;5.50;99.90;;;;;;5038108;28;20416;-66
2022/04/08 03:26:05;;;;;;;6.82;1.33;;;5.50;99.90;;;;;;5029926;28;20025;-66
2022/04/08 03:28:31;;;;;;;4.63;0.80;;;5.50;99.90;;;;;;5035131;28;20033;-65
2022/04/08 03:30:57;;;;;;;5.10;1.00;;;5.50;99.90;;;;;;5038112;28;20009;-65
2022/04/08 03:33:23;;;;;;;6.80;1.00;;;5.50;99.90;;;;;;5028602;28;20389;-65
2022/04/08 03:35:48;;;;;;;6.03;0.90;;;5.50;99.90;;;;;;5039079;28;20037;-65
2022/04/08 03:38:14;;;;;;;5.35;1.33;;;5.50;99.90;;;;;;5039121;28;20033;-66
2022/04/08 03:40:39;;;;;;;6.68;1.00;;;5.40;99.90;;;;;;5037451;28;20033;-65
2022/04/08 03:43:05;;;;;;;7.80;1.23;;;5.40;99.90;;;;;;5036989;28;20500;-65
2022/04/08 03:45:31;;;;;;;8.27;1.23;;;5.40;99.90;;;;;;5035663;28;20032;-65
2022/04/08 03:47:56;;;;;;;9.40;1.65;;;5.40;99.90;;;;;;5037536;28;20033;-66
2022/04/08 03:50:22;;;;;;;11.25;1.10;;;5.40;99.90;;;;;;5030246;28;20045;-65
2022/04/08 03:52:47;;;;;;;9.20;1.00;;;5.40;99.90;;;;;;5036831;28;20492;-65
2022/04/08 03:55:13;;;;;;;6.75;1.30;;;5.40;99.90;;;;;;5030068;28;20032;-65
2022/04/08 03:57:38;;;;;;;6.38;1.20;;;5.30;99.90;;;;;;5034082;28;20033;-66
2022/04/08 04:00:04;;;;;;;7.85;1.38;;;5.30;99.90;;;;;;5033756;28;20104;-65
2022/04/08 04:02:31;;;;;;;7.63;1.45;;;5.30;99.90;;;;;;5038477;28;20116;-66
2022/04/08 04:04:59;;;;;;;5.03;0.82;;;5.30;99.90;;;;;;5032461;28;20391;-65
2022/04/08 04:07:26;;;;;;;7.45;1.33;;;5.20;99.90;;;;;;5036744;28;20036;-65
2022/04/08 04:09:52;;;;;;;3.58;0.80;;;5.20;99.90;;;;;;5034128;28;20014;-66
2022/04/08 04:12:17;;;;;;;6.68;0.90;;;5.20;99.90;;;;;;5036518;28;20024;-66
2022/04/08 04:14:43;;;;;;;3.22;0.80;;;5.10;99.90;;;;;;5032281;28;20076;-65
2022/04/08 04:17:09;;;;;;;4.63;0.68;;;5.10;99.90;;;;;;5032035;28;20389;-66
2022/04/08 04:19:34;;;;;;;7.50;0.73;;;5.00;99.90;;;;;;5044023;28;20063;-65
2022/04/08 04:22:00;;;;;;;6.03;0.90;;;5.00;99.90;;;;;;5034064;28;20135;-65
2022/04/08 04:24:26;;;;;;;7.03;0.90;;;5.00;99.90;;;;;;5034600;28;20040;-65
2022/04/08 04:26:51;;;;;;;4.22;1.25;;;5.00;99.90;;;;;;5033224;28;20032;-65
2022/04/08 04:29:18;;;;;;;5.30;0.73;;;5.00;99.90;;;;;;5039242;28;20013;-65
2022/04/08 04:31:43;;;;;;;4.85;1.00;;;4.90;99.90;;;;;;5038538;28;20507;-66
2022/04/08 04:34:09;;;;;;;5.82;1.00;;;4.90;99.90;;;;;;5031309;28;20234;-65
2022/04/08 04:36:34;;;;;;;5.03;0.82;;;4.90;99.90;;;;;;5032311;28;20024;-65
2022/04/08 04:39:00;;;;;;;8.90;2.35;;;4.90;99.90;;;;;;5033384;28;20029;-66
2022/04/08 04:41:25;;;;;;;5.68;0.90;;;4.80;99.90;;;;;;5035580;28;20021;-65
2022/04/08 04:43:51;;;;;;;7.70;1.02;;;4.80;99.90;;;;;;5028303;28;20466;-66
2022/04/08 04:46:16;;;;;;;4.40;0.77;;;4.80;99.90;;;;;;5033341;28;20148;-65
2022/04/08 04:48:42;;;;;;;5.75;1.13;;;4.80;99.90;;;;;;5033156;28;20409;-66
2022/04/08 04:51:08;;;;;;;8.35;1.25;;;4.70;99.90;;;;;;5034483;28;20522;-65
2022/04/08 04:53:33;;;;;;;6.78;0.90;;;4.70;99.90;;;;;;5034143;28;20483;-65
2022/04/08 04:55:59;;;;;;;7.13;1.20;;;4.70;99.90;;;;;;5037801;28;20102;-65
2022/04/08 04:58:24;;;;;;;4.18;1.08;;;4.70;99.90;;;;;;5033171;28;20021;-66
2022/04/08 05:00:50;;;;;;;3.50;1.10;;;4.70;99.90;;;;;;5027805;28;20543;-65
2022/04/08 05:03:15;;;;;;;7.50;1.13;;;4.70;99.90;;;;;;5035524;28;20496;-65
2022/04/08 05:05:41;;;;;;;7.75;1.10;;;4.60;99.90;;;;;;5028270;28;20049;-65
2022/04/08 05:08:07;;;;;;;5.65;0.80;;;4.60;99.90;;;;;;5031427;28;20033;-65
2022/04/08 05:10:33;;;;;;;3.85;0.88;;;4.60;99.90;;;;;;5030865;28;20024;-66
2022/04/08 05:13:01;;;;;;;6.18;1.65;;;4.60;99.90;;;;;;5030412;28;20053;-65
2022/04/08 05:15:29;;;;;;;7.15;1.25;;;4.60;99.90;;;;;;5036764;28;20046;-65
2022/04/08 05:17:55;;;;;;;8.98;2.15;;;4.50;99.90;;;;;;5034864;28;20029;-66
2022/04/08 05:20:21;;;;;;;7.40;1.17;;;4.50;99.90;;;;;;5030698;28;20060;-65
2022/04/08 05:22:46;;;;;;;8.15;1.30;;;4.50;99.90;;;;;;5029780;28;20085;-66
2022/04/08 05:25:12;;;;;;;6.40;1.10;;;4.50;99.90;;;;;;5044533;28;20052;-66
2022/04/08 05:27:41;;;;;;;7.10;0.95;;;4.50;99.90;;;;;;5051034;28;20025;-65
2022/04/08 05:30:08;;;;;;;4.57;0.90;;;4.50;99.90;;;;;;5051177;28;20063;-65
2022/04/08 05:32:33;;;;;;;4.88;1.20;;;4.50;99.90;;;;;;5051178;28;20028;-65
2022/04/08 05:34:59;;;;;;;6.35;1.20;;;4.40;99.90;;;;;;5051300;28;20017;-65
2022/04/08 05:37:24;;;;;;;8.25;2.10;;;4.40;99.90;;;;;;5051197;28;20070;-66
2022/04/08 05:39:53;;;;;;;8.48;1.42;;;4.40;99.90;;;;;;5054105;28;20127;-65
2022/04/08 05:42:19;;;;;;;5.63;1.15;;;4.50;99.90;;;;;;5053589;28;20033;-65
2022/04/08 05:44:44;;;;;;;8.85;1.42;;;4.50;99.90;;;;;;5054598;28;20136;-65
2022/04/08 05:47:10;;;;;;;5.82;1.88;;;4.50;99.90;;;;;;5053443;28;20029;-65
2022/04/08 05:49:35;;;;;;;4.78;1.13;;;4.50;99.90;;;;;;5054593;28;20021;-65
2022/04/08 05:52:01;;;;;;;6.57;1.20;;;4.60;99.90;;;;;;5049515;28;20037;-65
2022/04/08 05:54:27;;;;;;;8.10;1.58;;;4.60;99.90;;;;;;5034696;28;20100;-66
2022/04/08 05:56:52;;;;;;;6.78;1.88;;;4.70;99.90;;;;;;5034728;28;20108;-65
2022/04/08 05:59:17;;;;;;;6.75;1.60;;;4.70;99.90;;;;;;5034517;28;20033;-65
2022/04/08 06:01:43;;;;;;;5.70;1.25;;;4.80;99.90;;;;;;5034466;28;20037;-65
2022/04/08 06:04:08;;;;;;;8.07;1.88;;;4.80;99.90;;;;;;5034337;28;20030;-65
2022/04/08 06:06:34;;;;;;;6.35;1.92;;;4.80;99.90;;;;;;5033005;28;20083;-65
2022/04/08 06:08:59;;;;;;;6.63;1.20;;;4.80;99.90;;;;;;5034531;28;20038;-65
2022/04/08 06:11:25;;;;;;;6.13;2.10;;;4.90;99.90;;;;;;5049088;28;20104;-65
2022/04/08 06:13:50;;;;;;;4.53;1.38;;;4.90;99.90;;;;;;5053076;28;20083;-66
2022/04/08 06:16:17;;;;;;;8.85;1.83;;;5.00;99.90;;;;;;5047205;28;20071;-65
2022/04/08 06:18:43;;;;;;;6.95;1.33;;;5.00;99.90;;;;;;5052782;28;20025;-65
2022/04/08 06:21:08;;;;;;;9.35;1.88;;;5.00;99.90;;;;;;5047562;28;20050;-65
2022/04/08 06:23:34;;;;;;;4.50;1.70;;;5.10;99.90;;;;;;5046386;28;20029;-65
2022/04/08 06:25:59;;;;;;;4.63;1.48;;;5.10;99.90;;;;;;5051190;28;20390;-65
2022/04/08 06:28:25;;;;;;;5.10;1.70;;;5.20;99.90;;;;;;5051889;28;20025;-65
2022/04/08 06:30:50;;;;;;;4.20;1.55;;;5.20;99.90;;;;;;5049789;28;20021;-65
2022/04/08 06:33:16;;;;;;;4.03;1.30;;;5.30;99.90;;;;;;5046770;28;20462;-66
2022/04/08 06:35:42;;;;;;;3.92;1.20;;;5.30;99.90;;;;;;5047035;28;20063;-65
2022/04/08 06:38:08;;;;;;;7.88;1.80;;;5.40;99.90;;;;;;5053896;28;20397;-65
2022/04/08 06:40:41;;;;;;;7.10;1.90;;;5.40;99.90;;;;;;5053223;28;20029;-65
2022/04/08 06:43:07;;;;;;;6.85;1.30;;;5.50;99.90;;;;;;5053555;28;20073;-65
2022/04/08 06:45:33;;;;;;;6.20;1.30;;;5.50;99.90;;;;;;5053024;28;20057;-65
2022/04/08 06:47:59;;;;;;;8.48;2.15;;;5.60;99.90;;;;;;5051597;28;20025;-65
2022/04/08 06:50:25;;;;;;;7.95;2.67;;;5.70;99.90;;;;;;5052314;28;20489;-65
2022/04/08 06:52:53;;;;;;;5.05;1.30;;;5.70;99.90;;;;;;5053101;28;20029;-66
2022/04/08 06:55:19;;;;;;;11.85;1.98;;;5.80;99.90;;;;;;5053519;28;20017;-66
2022/04/08 06:57:44;;;;;;;5.65;1.48;;;5.90;99.90;;;;;;5048782;28;20123;-66
2022/04/08 07:00:12;;;;;;;6.18;2.20;;;6.00;99.90;;;;;;5048278;28;20063;-66
2022/04/08 07:02:38;;;;;;;7.10;1.48;;;6.10;99.90;;;;;;5052581;28;20128;-66
2022/04/08 07:05:05;;;;;;;5.38;1.48;;;6.20;99.90;;;;;;5051692;28;20112;-66
2022/04/08 07:07:35;;;;;;;4.13;1.33;;;6.20;99.90;;;;;;5053403;28;20257;-66
2022/04/08 07:10:01;;;;;;;5.25;1.73;;;6.30;99.90;;;;;;5053022;28;20029;-65
2022/04/08 07:12:27;;;;;;;3.33;1.30;;;6.40;99.90;;;;;;5053043;28;20025;-65
2022/04/08 07:14:53;;;;;;;2.67;1.38;;;6.40;99.90;;;;;;5051578;28;20064;-65
2022/04/08 07:17:26;;;;;;;8.05;1.20;;;6.50;99.90;;;;;;5052448;28;20067;-65
2022/04/08 07:19:51;;;;;;;7.70;1.40;;;6.60;99.90;;;;;;5051946;28;20090;-66
2022/04/08 07:22:17;;;;;;;6.68;1.17;;;6.70;99.90;;;;;;5050575;28;20041;-66
2022/04/08 07:24:42;;;;;;;4.60;0.95;;;6.80;99.90;;;;;;5052449;28;20083;-66
2022/04/08 07:27:09;;;;;;;6.43;1.17;;;6.90;99.90;;;;;;5052825;28;20095;-66
2022/04/08 07:29:34;;;;;;;5.90;1.35;;;6.90;99.60;;;;;;5052855;28;20032;-67
2022/04/08 07:32:00;;;;;;;5.32;1.20;;;7.00;99.40;;;;;;5053080;28;20029;-66
2022/04/08 07:34:25;;;;;;;4.68;1.00;;;7.00;99.10;;;;;;5052580;28;20430;-67
2022/04/08 07:36:51;;;;;;;4.55;1.10;;;7.10;99.00;;;;;;5051214;28;20060;-67
2022/04/08 07:39:17;;;;;;;5.05;1.48;;;7.10;99.00;;;;;;5052569;28;20017;-66
2022/04/08 07:41:42;;;;;;;5.10;1.83;;;7.20;98.80;;;;;;5052282;28;20024;-66
2022/04/08 07:44:08;;;;;;;7.68;1.67;;;7.20;98.50;;;;;;5052457;28;20022;-66
2022/04/08 07:46:33;;;;;;;4.18;1.50;;;7.20;98.20;;;;;;5052705;28;20477;-66
2022/04/08 07:48:59;;;;;;;4.72;1.60;;;7.30;98.00;;;;;;5052403;28;20111;-66
2022/04/08 07:51:24;;;;;;;4.68;1.58;;;7.30;97.90;;;;;;5052107;28;20036;-66
2022/04/08 07:53:50;;;;;;;7.20;1.88;;;7.40;97.80;;;;;;5052125;28;20028;-66
2022/04/08 07:56:18;;;;;;;5.65;1.92;;;7.40;97.20;;;;;;5052254;28;20107;-66
2022/04/08 07:58:45;;;;;;;3.65;1.30;;;7.40;96.90;;;;;;5051033;28;20178;-66
2022/04/08 08:01:11;;;;;;;6.07;1.90;;;7.40;97.00;;;;;;5051557;28;20021;-66
2022/04/08 08:03:36;;;;;;;6.00;1.67;;;7.40;96.90;;;;;;5052122;28;20036;-66
2022/04/08 08:06:03;;;;;;;8.82;1.98;;;7.50;96.80;;;;;;5050650;28;20039;-66
2022/04/08 08:08:29;;;;;;;5.13;1.80;;;7.50;96.70;;;;;;5051598;28;20037;-66
2022/04/08 08:10:55;;;;;;;4.00;1.77;;;7.50;96.70;;;;;;5051879;28;20029;-66
2022/04/08 08:13:22;;;;;;;5.53;1.55;;;7.60;96.50;;;;;;5043044;28;20048;-66
2022/04/08 08:15:47;;;;;;;4.75;1.90;;;7.60;96.50;;;;;;5051379;28;20013;-66
2022/04/08 08:18:13;;;;;;;4.50;2.08;;;7.70;96.50;;;;;;5046655;28;20025;-67
2022/04/08 08:20:39;;;;;;;7.68;2.65;;;7.80;96.30;;;;;;5041470;28;20401;-66
2022/04/08 08:23:06;;;;;;;6.55;2.25;;;7.80;95.90;;;;;;5050897;28;20076;-66
2022/04/08 08:25:32;;;;;;;3.78;1.52;;;7.80;95.90;;;;;;5051688;28;20481;-66
2022/04/08 08:28:01;;;;;;;5.53;1.98;;;7.90;96.00;;;;;;5051792;28;20083;-67
2022/04/08 08:30:29;;;;;;;5.97;2.50;;;8.00;96.00;;;;;;5051910;28;20112;-66
2022/04/08 08:32:54;;;;;;;5.63;2.35;;;8.00;95.90;;;;;;5051723;28;20564;-66
2022/04/08 08:35:20;;;;;;;7.60;2.63;;;8.00;95.70;;;;;;5051690;28;20029;-66
2022/04/08 08:37:48;;;;;;;5.22;2.13;;;8.10;95.40;;;;;;5051337;28;20025;-67
2022/04/08 08:40:15;;;;;;;5.13;2.45;;;8.10;95.20;;;;;;5051780;28;20025;-66
2022/04/08 08:42:42;;;;;;;7.40;2.45;;;8.10;94.50;;;;;;5051620;28;20465;-66
2022/04/08 08:45:09;;;;;;;6.25;2.05;;;8.10;94.20;;;;;;5050474;28;20021;-66
2022/04/08 08:47:35;;;;;;;2.55;1.60;;;8.10;94.10;;;;;;5050889;28;20112;-66
2022/04/08 08:50:02;;;;;;;4.07;1.98;;;8.20;94.30;;;;;;5051692;28;20116;-66
2022/04/08 08:52:28;;;;;;;8.48;2.45;;;8.30;94.20;;;;;;5051472;28;20025;-66
2022/04/08 08:54:54;;;;;;;3.35;2.10;;;8.30;94.20;;;;;;5051707;28;20487;-66
2022/04/08 08:57:21;;;;;;;4.22;2.45;;;8.40;93.90;;;;;;5051691;28;20033;-66
2022/04/08 08:59:50;;;;;;;5.50;1.95;;;8.40;93.80;;;;;;5051474;28;20108;-66
2022/04/08 09:02:20;;;;;;;4.65;2.42;;;8.50;93.70;;;;;;5051466;28;20588;-66
2022/04/08 09:04:46;;;;;;;5.57;2.63;;;8.50;93.60;;;;;;5051084;28;20029;-67
2022/04/08 09:07:31;;;;;;;6.30;2.80;;;8.50;93.30;;;;;;5050118;28;20029;-67
2022/04/08 09:09:58;;;;;;;5.13;2.28;;;8.70;93.20;;;;;;5051266;28;20033;-66
2022/04/08 09:12:25;;;;;;;5.82;2.22;;;8.70;93.00;;;;;;5051886;28;20028;-66
2022/04/08 09:14:53;;;;;;;2.95;1.83;;;8.80;93.00;;;;;;5055294;28;20185;-66
2022/04/08 09:17:23;;;;;;;4.75;1.60;;;8.90;92.90;;;;;;5051701;28;20112;-66
2022/04/08 09:19:58;;;;;;;6.07;2.05;;;9.00;92.70;;;;;;5035251;28;20021;-66
2022/04/08 09:22:33;;;;;;;9.23;2.17;;;9.10;92.40;;;;;;5034867;28;20052;-67
2022/04/08 09:25:12;;;;;;;4.43;1.88;;;9.20;92.10;;;;;;5046344;28;20480;-66
2022/04/08 09:27:39;;;;;;;7.13;2.42;;;9.20;91.70;;;;;;5052982;28;20029;-67
2022/04/08 09:30:07;;;;;;;7.00;2.50;;;9.10;91.40;;;;;;5037153;28;20044;-66
2022/04/08 09:32:33;;;;;;;6.50;2.20;;;9.10;91.00;;;;;;5039845;28;20091;-66
2022/04/08 09:34:59;;;;;;;5.68;2.10;;;9.10;91.20;;;;;;5054093;28;20025;-66
2022/04/08 09:37:25;;;;;;;7.55;2.10;;;9.20;91.30;;;;;;5054737;28;20480;-66
2022/04/08 09:40:03;;;;;;;4.68;1.50;;;9.30;91.20;;;;;;5054754;28;20029;-65
2022/04/08 09:42:43;;;;;;;5.47;1.60;;;9.30;91.10;;;;;;5054842;28;20033;-66
2022/04/08 09:45:09;;;;;;;4.82;1.83;;;9.40;90.90;;;;;;5054814;28;20392;-66
2022/04/08 09:47:36;;;;;;;8.50;1.67;;;9.30;90.90;;;;;;5054312;28;20041;-66
2022/04/08 09:50:02;;;;;;;8.38;1.58;;;9.40;90.90;;;;;;5054755;28;20052;-66
2022/04/08 09:52:29;;;;;;;5.47;1.65;;;9.40;90.90;;;;;;5054532;28;20473;-66
2022/04/08 09:54:58;;;;;;;6.68;1.58;;;9.50;90.90;;;;;;5052535;28;20017;-67
2022/04/08 09:57:24;;;;;;;5.43;1.15;;;9.50;90.60;;;;;;5052649;28;20040;-66
2022/04/08 09:59:55;;;;;;;7.13;1.40;;;9.50;90.50;;;;;;5052691;28;20033;-66
2022/04/08 10:02:24;;;;;;;4.95;1.38;;;9.60;90.30;;;;;;5053211;28;20036;-66
2022/04/08 10:04:52;;;;;;;3.73;1.07;;;9.60;90.20;;;;;;5056617;28;20047;-66
2022/04/08 10:07:19;;;;;;;5.53;1.30;;;9.60;90.10;;;;;;5050844;28;20698;-66
2022/04/08 10:10:17;;;;;;;7.22;1.45;;;9.70;90.10;;;;;;5034725;28;20025;-66
2022/04/08 10:13:01;;;;;;;4.50;1.20;;;9.80;89.90;;;;;;5042249;28;20029;-66
2022/04/08 10:15:32;;;;;;;6.25;1.60;;;9.90;89.30;;;;;;5052595;28;20377;-67
2022/04/08 10:17:59;;;;;;;4.05;1.60;;;9.80;88.60;;;;;;5053409;28;20035;-66
2022/04/08 10:20:27;;;;;;;5.72;1.60;;;9.80;88.50;;;;;;5050333;28;20021;-66
2022/04/08 10:23:10;;;;;;;6.53;2.08;;;9.80;88.30;;;;;;5052244;28;20562;-66
2022/04/08 10:25:40;;;;;;;4.07;1.38;;;9.80;87.90;;;;;;5044388;28;20103;-66
2022/04/08 10:28:07;;;;;;;6.68;1.80;;;9.70;87.30;;;;;;5050568;28;20108;-66
2022/04/08 10:30:37;;;;;;;6.53;1.33;;;9.80;87.50;;;;;;5040551;28;20041;-67
2022/04/08 10:33:06;;;;;;;4.70;1.08;;;9.80;87.50;;;;;;5051962;28;20029;-66
2022/04/08 10:35:31;;;;;;;8.65;1.77;;;9.80;87.40;;;;;;5049243;28;20070;-66
2022/04/08 10:38:03;;;;;;;6.25;1.60;;;9.70;87.30;;;;;;5053549;28;20392;-67
2022/04/08 10:40:30;;;;;;;5.88;1.58;;;9.70;87.10;;;;;;5053464;28;20035;-66
2022/04/08 10:43:03;;;;;;;5.53;1.60;;;9.70;87.00;;;;;;5053702;28;20094;-66
2022/04/08 10:45:29;;;;;;;3.53;1.20;;;9.70;86.80;;;;;;5052305;28;20025;-66
2022/04/08 10:47:59;;;;;;;5.60;1.90;;;9.60;87.10;;;;;;5053388;28;20112;-66
2022/04/08 10:50:26;;;;;;;6.28;1.65;;;9.70;87.20;;;;;;5053735;28;20021;-66
2022/04/08 10:53:08;;;;;;;4.90;1.65;;;9.80;87.40;;;;;;5053696;28;20029;-66
2022/04/08 10:55:47;;;;;;;4.88;1.95;;;10.00;86.90;;;;;;5053184;28;20491;-66
2022/04/08 10:58:28;;;;;;;6.57;1.65;;;10.10;86.30;;;;;;5051395;28;20075;-66
2022/04/08 11:00:54;;;;;;;2.95;1.60;;;10.20;85.70;;;;;;5052398;28;20025;-66
2022/04/08 11:03:25;;;;;;;4.65;1.50;;;10.30;84.90;;;;;;5050389;28;20036;-66
2022/04/08 11:05:51;;;;;;;6.28;2.13;;;10.30;85.00;;;;;;5048194;28;20091;-66
2022/04/08 11:08:18;;;;;;;3.88;1.55;;;10.40;85.10;;;;;;5047425;28;20428;-66
2022/04/08 11:10:43;;;;;;;7.03;1.70;;;10.40;84.60;;;;;;5051066;28;20107;-66
2022/04/08 11:13:11;;;;;;;5.85;2.33;;;10.40;84.70;;;;;;5047970;28;20461;-66
2022/04/08 11:15:43;;;;;;;6.45;2.03;;;10.40;84.70;;;;;;5044584;28;20096;-66
2022/04/08 11:18:09;;;;;;;5.05;1.60;;;10.50;83.90;;;;;;5052861;28;20029;-66
2022/04/08 11:20:34;;;;;;;4.78;1.70;;;10.40;83.60;;;;;;5051561;28;20031;-66
2022/04/08 11:23:00;;;;;;;6.13;2.20;;;10.30;83.30;;;;;;5052853;28;20053;-66
2022/04/08 11:25:28;;;;;;;7.30;1.65;;;10.30;82.80;;;;;;5052390;28;20095;-66
2022/04/08 11:28:04;;;;;;;3.38;1.40;;;10.30;83.10;;;;;;5052667;28;20036;-66
2022/04/08 11:30:35;;;;;;;4.65;1.67;;;10.40;83.50;;;;;;5052828;28;20024;-65
2022/04/08 11:33:15;;;;;;;5.78;1.65;;;10.30;82.50;;;;;;5045120;28;20082;-67
2022/04/08 11:35:41;;;;;;;4.65;1.77;;;10.30;82.70;;;;;;5050529;28;20017;-67
2022/04/08 11:38:17;;;;;;;3.03;1.40;;;10.30;82.40;;;;;;5050988;28;20083;-67
2022/04/08 11:40:44;;;;;;;3.10;1.10;;;10.40;82.70;;;;;;5052227;28;20471;-66
2022/04/08 11:43:14;;;;;;;5.88;1.67;;;10.30;81.30;;;;;;5052421;28;20021;-67
2022/04/08 11:45:39;;;;;;;4.38;1.15;;;10.30;81.20;;;;;;5046632;28;20033;-66
2022/04/08 11:48:19;;;;;;;6.35;1.65;;;10.40;81.70;;;;;;5050160;28;20082;-66
2022/04/08 11:50:45;;;;;;;5.28;1.45;;;10.50;81.80;;;;;;5045142;28;20044;-67
2022/04/08 11:53:15;;;;;;;3.72;1.33;;;10.60;81.90;;;;;;5048757;28;20052;-66
2022/04/08 11:55:59;;;;;;;3.42;1.60;;;10.70;81.40;;;;;;5051958;28;20459;-66
2022/04/08 11:58:25;;;;;;;4.65;1.20;;;10.80;81.30;;;;;;5052155;28;20025;-66
2022/04/08 12:00:52;;;;;;;4.03;1.88;;;10.80;81.40;;;;;;5052198;28;20029;-66
2022/04/08 12:03:22;;;;;;;5.15;1.92;;;10.80;81.30;;;;;;5046260;28;20040;-67
2022/04/08 12:05:49;;;;;;;5.20;1.92;;;10.70;80.70;;;;;;5050012;28;20520;-66
2022/04/08 12:08:17;;;;;;;4.78;1.52;;;10.60;80.90;;;;;;5052031;28;20024;-66
2022/04/08 12:10:42;;;;;;;5.28;1.55;;;10.60;81.20;;;;;;5052151;28;20041;-66
2022/04/08 12:13:22;;;;;;;4.60;1.52;;;10.60;81.40;;;;;;5052188;28;20119;-66
2022/04/08 12:15:49;;;;;;;4.50;1.50;;;10.70;81.30;;;;;;5051831;28;20017;-66
2022/04/08 12:18:23;;;;;;;3.88;1.13;;;10.70;81.20;;;;;;5051945;28;20029;-66
2022/04/08 12:21:00;;;;;;;3.70;1.55;;;10.70;80.70;;;;;;5051884;28;20032;-67
2022/04/08 12:23:27;;;;;;;5.38;2.15;;;10.70;80.60;;;;;;5051770;28;20492;-66
2022/04/08 12:25:58;;;;;;;4.07;1.52;;;10.60;80.70;;;;;;5051478;28;20079;-66
2022/04/08 12:28:31;;;;;;;5.70;1.35;;;10.60;80.60;;;;;;5051693;28;20065;-66
2022/04/08 12:30:57;;;;;;;7.35;1.77;;;10.60;80.70;;;;;;5051751;28;20017;-66
2022/04/08 12:33:23;;;;;;;3.13;1.30;;;10.60;80.80;;;;;;5051726;28;20608;-66
2022/04/08 12:35:49;;;;;;;5.38;1.33;;;10.60;81.20;;;;;;5050632;28;20021;-66
2022/04/08 12:38:22;;;;;;;4.50;1.50;;;10.60;81.20;;;;;;5049580;28;20032;-67
2022/04/08 12:40:48;;;;;;;3.53;1.00;;;10.60;81.00;;;;;;5050042;28;20029;-66
2022/04/08 12:43:14;;;;;;;2.58;1.00;;;10.60;81.30;;;;;;5049719;28;20013;-66
2022/04/08 12:45:39;;;;;;;4.53;1.77;;;10.70;81.50;;;;;;5049792;28;20473;-66
2022/04/08 12:48:06;;;;;;;2.97;1.05;;;10.70;81.30;;;;;;5046469;28;20396;-66
2022/04/08 12:50:32;;;;;;;3.67;1.65;;;10.80;81.40;;;;;;5054002;28;20024;-66
2022/04/08 12:52:58;;;;;;;6.18;2.90;;;10.90;81.10;;;;;;5051447;28;20527;-67
2022/04/08 12:55:24;;;;;;;3.22;1.10;;;10.90;81.00;;;;;;5054044;28;20485;-67